Huvudsida
METAR-TAF:

METAR-TAF

Flygplatser :

La Chaux-de-Fonds, Schweiz

latitud: 47-05-03N, longitud: 006-47-37E, höjd: 1027 m

Aktuellt väderrapport

Denna rapport gjordes för 24 minuter sedan, klockan 13:50 UTC
Vind 6 kt från syd/sydost, varierande mellan sydost och syd/sydväst
Temperatur 26°C
Fuktighet 39%
Tryck 1022 hPa
Sikt 10 km eller mer
Inga moln under 1 500 m eller inga cumulonimbus

METAR: LSGC 241350Z 16006KT 130V210 CAVOK 26/11 Q1022

Tid: 16:14 (14:14 UTC)

Väderprognos

Denna rapport gjordes för 2 timmar och 49 minuter sedan, klockan 11:25 UTC
Prognos gäller från 24 kl. 12 UTC till 24 kl. 21 UTC
Vind 3 kt varierande vindriktning
Sikt 10 km eller mer
Inga moln under 1 500 m eller inga cumulonimbus

TAF: LSGC 241125Z 2412/2421 VRB03KT CAVOK

Aktuella väderrapporter och prognoser från 4000 flygplatser (METAR- och TAF-rapporter).

De tillgängliga stationerna syns som gula och röda prickar på kartan.

För musen över prickarna för att se namnen på stationerna.

Klicka sedan för att få väderrapporter och prognoser.

För att ändra kartan: Klicka på de gröna knapparna med ett svart kors på för att zooma in; den gröna knappen med ett streck på för att zooma ut; eller på de gröna pilarna för angränsande kartor.


METAR-TAF: